»·PEaware :: N921VN KBFL-KCMA

N921VN :: KBFL-KCMA

FLIGHT INFORMATION

Flight Status: Arrived
Operator: Privately registered:
United States
More flights under this callsign
Pilot: Kevin M. (7)
Aircraft: BEECH AIRCRAFT BARON
(BE58)
More flights by this aircraft type
Origin: KBFL Meadows
United States
Destination: KCMA Camarillo
United States
More flights between these airports :: More routes between these airports
Route:
File this flight plan on PilotEdge
Remarks: Dead reckoning the Alphabet challenge leg 2
Altitude:
(Current/Filed)
8,500ft
Speed:
(Current/Filed)
150kts
Departed: 29-Oct-19 10:44 AM
Arrived: 29-Oct-19 11:17 AM
Distance/Time
Traveled:
73nm/0:32
Distance/Time
To Go:
Arrived

Flight Plot

Page will automatically refresh every two minutes.


Map Options




Map Legend


Flown Route
Filed Route
Departure Airport
Arrival Airport
Navaid (VOR, NDB)
Fix

Horizontal Profiles

Position Reports

Time Latitude Longitude Heading Altitude Ground
Speed
29-Oct-19 10:19 35.428364 -119.045342 133 493ft 0kts
29-Oct-19 10:20 35.428364 -119.045342 133 493ft 0kts
29-Oct-19 10:21 35.428364 -119.045342 133 493ft 0kts
29-Oct-19 10:22 35.428364 -119.045342 133 493ft 0kts
29-Oct-19 10:23 35.428364 -119.045342 133 493ft 0kts
29-Oct-19 10:24 35.428364 -119.045342 133 493ft 0kts
29-Oct-19 10:25 35.428364 -119.045342 133 493ft 0kts
29-Oct-19 10:26 35.428364 -119.045342 133 493ft 0kts
29-Oct-19 10:27 35.428364 -119.045342 133 493ft 0kts
29-Oct-19 10:28 35.428364 -119.045342 133 493ft 0kts
29-Oct-19 10:29 35.428364 -119.045342 133 493ft 0kts
29-Oct-19 10:30 35.428364 -119.045342 133 493ft 0kts
29-Oct-19 10:31 35.428364 -119.045342 133 493ft 0kts
29-Oct-19 10:32 35.428364 -119.045342 133 493ft 0kts
29-Oct-19 10:33 35.428364 -119.045342 133 493ft 0kts
29-Oct-19 10:34 35.428364 -119.045342 133 493ft 0kts
29-Oct-19 10:35 35.428364 -119.045342 133 493ft 0kts
29-Oct-19 10:36 35.428364 -119.045342 133 493ft 0kts
29-Oct-19 10:37 35.428357 -119.045333 133 493ft 0kts
29-Oct-19 10:38 35.428317 -119.045281 133 493ft 0kts
29-Oct-19 10:39 35.428059 -119.045593 249 491ft 2kts
29-Oct-19 10:40 35.426521 -119.045082 137 483ft 6kts
29-Oct-19 10:41 35.425489 -119.045288 267 479ft 12kts
29-Oct-19 10:42 35.425710 -119.046352 313 477ft 0kts
29-Oct-19 10:43 35.441849 -119.071969 283 1724ft 127kts
29-Oct-19 10:44 35.429673 -119.108623 182 3697ft 124kts
29-Oct-19 10:45 35.387761 -119.101512 176 4314ft 184kts
29-Oct-19 10:46 35.341042 -119.092574 156 5449ft 171kts
29-Oct-19 10:47 35.293421 -119.080591 174 6291ft 180kts
29-Oct-19 10:48 35.246796 -119.062884 154 6976ft 183kts
29-Oct-19 10:49 35.198678 -119.045382 164 7600ft 163kts
29-Oct-19 10:50 35.154756 -119.028695 155 7536ft 178kts
29-Oct-19 10:51 35.110846 -119.004387 159 7111ft 188kts
29-Oct-19 10:52 35.068558 -118.981899 164 7101ft 141kts
29-Oct-19 10:53 35.030087 -118.960645 158 7669ft 181kts
29-Oct-19 10:54 34.982861 -118.947994 177 7861ft 163kts
29-Oct-19 10:55 34.934099 -118.926418 165 7373ft 162kts
29-Oct-19 10:56 34.891536 -118.908729 167 7541ft 169kts
29-Oct-19 10:57 34.847878 -118.887659 162 7534ft 176kts
29-Oct-19 10:58 34.813889 -118.897431 281 7183ft 150kts
29-Oct-19 10:59 34.823514 -118.940210 282 8241ft 138kts
29-Oct-19 11:00 34.821293 -118.987712 259 8606ft 142kts
29-Oct-19 11:01 34.798830 -119.033780 222 9067ft 179kts
29-Oct-19 11:02 34.756053 -119.070583 233 8637ft 203kts
29-Oct-19 11:03 34.713291 -119.116022 204 8375ft 193kts
29-Oct-19 11:04 34.666201 -119.144310 219 8343ft 199kts
29-Oct-19 11:05 34.629367 -119.188964 222 8372ft 190kts
29-Oct-19 11:06 34.577972 -119.211668 192 8048ft 190kts
29-Oct-19 11:07 34.527743 -119.203292 170 6634ft 186kts
29-Oct-19 11:08 34.479219 -119.186901 170 5350ft 178kts
29-Oct-19 11:09 34.430962 -119.182200 179 4168ft 158kts
29-Oct-19 11:10 34.391258 -119.182401 182 4307ft 145kts
29-Oct-19 11:11 34.349486 -119.169326 160 5460ft 174kts
29-Oct-19 11:12 34.303914 -119.136730 140 5453ft 214kts
29-Oct-19 11:13 34.259523 -119.089716 124 2880ft 178kts
29-Oct-19 11:14 34.234244 -119.055419 169 1393ft 125kts
29-Oct-19 11:15 34.213511 -119.073973 276 264ft 107kts
29-Oct-19 11:16 34.212558 -119.095719 193 65ft 11kts
29-Oct-19 11:17 34.211802 -119.092502 91 67ft 12kts
29-Oct-19 11:18 34.211776 -119.088310 97 71ft 7kts
29-Oct-19 11:19 34.210825 -119.083050 134 76ft 14kts
29-Oct-19 11:20 34.210390 -119.083220 352 75ft 0kts

Navigation Log

Ident Type
Flight plan parsing failed, navigation log unavailable